createdAt,value
2022-10-15T00:00:02.405Z,39.40
2022-10-15T00:10:01.023Z,32.50
2022-10-15T00:20:01.052Z,40.70
2022-10-15T00:30:00.142Z,36.80
2022-10-15T00:50:01.002Z,32.40
2022-10-15T01:00:00.188Z,38.80
2022-10-15T01:10:02.463Z,41.90
2022-10-15T01:20:01.906Z,34.90
2022-10-15T01:30:00.263Z,39.00
2022-10-15T01:40:02.716Z,43.60
2022-10-15T01:50:01.277Z,35.00
2022-10-15T02:00:01.324Z,37.70
2022-10-15T02:10:00.130Z,34.50
2022-10-15T02:20:00.326Z,37.80
2022-10-15T02:30:00.159Z,44.70
2022-10-15T02:40:00.151Z,40.10
2022-10-15T02:50:01.318Z,47.30
2022-10-15T03:00:01.196Z,47.60
2022-10-15T03:10:01.300Z,39.90
2022-10-15T03:20:01.022Z,37.50
2022-10-15T03:30:01.298Z,44.60
2022-10-15T03:50:01.225Z,43.10
2022-10-15T04:00:01.281Z,34.70
2022-10-15T04:10:01.415Z,45.20
2022-10-15T04:20:01.159Z,38.50
2022-10-15T04:30:00.156Z,45.70
2022-10-15T04:40:01.000Z,43.70
2022-10-15T04:50:01.302Z,37.60
2022-10-15T05:00:00.138Z,41.00
2022-10-15T05:10:01.263Z,35.20
2022-10-15T05:20:01.050Z,33.00
2022-10-15T05:30:01.536Z,34.40
2022-10-15T05:40:00.990Z,40.80
2022-10-15T05:50:01.030Z,28.30
2022-10-15T06:00:00.155Z,28.80
2022-10-15T06:10:01.209Z,34.30
2022-10-15T06:20:00.163Z,29.60
2022-10-15T06:30:01.605Z,29.20
2022-10-15T06:40:00.970Z,36.70
2022-10-15T06:50:01.262Z,37.60
2022-10-15T07:00:01.238Z,36.50
2022-10-15T07:10:00.139Z,31.00
2022-10-15T07:20:01.287Z,37.20
2022-10-15T07:30:01.060Z,28.30
2022-10-15T07:40:01.052Z,35.40
2022-10-15T07:50:02.927Z,35.00
2022-10-15T08:00:01.268Z,45.50
2022-10-15T08:10:00.974Z,23.90
2022-10-15T08:20:01.268Z,32.70
2022-10-15T08:30:01.689Z,30.20
2022-10-15T08:40:01.254Z,38.30
2022-10-15T08:50:00.153Z,50.20
2022-10-15T09:00:00.991Z,45.70
2022-10-15T09:10:01.285Z,47.30
2022-10-15T09:20:01.027Z,49.60
2022-10-15T09:30:01.241Z,57.20
2022-10-15T09:40:02.157Z,44.20
2022-10-15T09:50:01.582Z,47.70
2022-10-15T10:00:01.129Z,43.90
2022-10-15T10:10:03.274Z,52.40
2022-10-15T10:20:03.192Z,58.70
2022-10-15T10:30:01.522Z,60.80
2022-10-15T10:40:00.175Z,57.80
2022-10-15T10:50:01.813Z,58.90
2022-10-15T11:00:00.163Z,54.30
2022-10-15T11:10:00.141Z,63.20
2022-10-15T11:30:01.267Z,54.60
2022-10-15T11:40:01.056Z,98.30
2022-10-15T11:50:00.953Z,577.40
2022-10-15T12:00:01.272Z,627.90
2022-10-15T12:10:01.244Z,616.30
2022-10-15T12:20:00.187Z,364.20
2022-10-15T12:30:00.964Z,228.70
2022-10-15T12:40:01.475Z,92.10
2022-10-15T12:50:02.705Z,96.70
2022-10-15T13:00:00.165Z,117.00
2022-10-15T13:10:00.948Z,130.70
2022-10-15T13:20:00.165Z,133.10
2022-10-15T13:30:01.099Z,102.70
2022-10-15T13:40:03.055Z,100.60
2022-10-15T13:50:01.074Z,81.30
2022-10-15T14:00:03.092Z,108.10
2022-10-15T14:10:01.994Z,114.70
2022-10-15T14:20:26.198Z,116.00
2022-10-15T14:30:01.245Z,105.00
2022-10-15T14:50:02.323Z,116.00
2022-10-15T15:00:00.190Z,81.60
2022-10-15T15:10:01.440Z,85.00
2022-10-15T15:20:01.033Z,61.10
2022-10-15T15:30:00.146Z,55.40
2022-10-15T15:40:01.806Z,58.00
2022-10-15T15:50:01.269Z,51.80
2022-10-15T16:00:01.284Z,59.60
2022-10-15T16:10:01.023Z,62.20
2022-10-15T16:20:00.130Z,45.90
2022-10-15T16:30:00.167Z,30.40
2022-10-15T16:50:02.621Z,34.30
2022-10-15T17:00:01.396Z,22.10
2022-10-15T17:10:01.362Z,23.70
2022-10-15T17:20:00.163Z,21.70
2022-10-15T17:30:01.274Z,29.60
2022-10-15T17:40:01.242Z,24.80
2022-10-15T17:50:00.994Z,40.80
2022-10-15T18:00:02.481Z,23.80
2022-10-15T18:10:01.067Z,34.20
2022-10-15T18:20:01.521Z,25.90
2022-10-15T18:30:01.106Z,33.50
2022-10-15T18:40:01.028Z,26.40
2022-10-15T18:50:00.992Z,29.10
2022-10-15T19:00:01.314Z,22.50
2022-10-15T19:10:02.438Z,27.50
2022-10-15T19:20:01.059Z,25.00
2022-10-15T19:30:01.521Z,26.00
2022-10-15T19:40:00.163Z,22.90
2022-10-15T19:50:00.983Z,27.60
2022-10-15T20:00:01.237Z,23.70
2022-10-15T20:10:00.945Z,22.40
2022-10-15T20:20:01.688Z,22.80
2022-10-15T20:30:00.142Z,19.10
2022-10-15T20:40:01.103Z,17.10
2022-10-15T20:50:01.062Z,19.50
2022-10-15T21:00:00.145Z,18.00
2022-10-15T21:10:01.010Z,17.60
2022-10-15T21:20:01.038Z,16.70
2022-10-15T21:30:01.072Z,19.50
2022-10-15T21:40:01.030Z,23.70
2022-10-15T21:50:01.028Z,16.70
2022-10-15T22:00:00.967Z,20.10
2022-10-15T22:10:00.953Z,17.60
2022-10-15T22:20:01.108Z,18.70
2022-10-15T22:30:01.011Z,16.20
2022-10-15T22:40:01.035Z,15.80
2022-10-15T23:00:01.079Z,13.90
2022-10-15T23:10:01.014Z,10.70
2022-10-15T23:20:01.449Z,11.00
2022-10-15T23:30:07.686Z,11.70
2022-10-15T23:40:03.298Z,22.30
2022-10-15T23:50:00.124Z,14.50
